createdAt,value
2022-12-27T00:00:45.595Z,10.94
2022-12-27T00:02:47.202Z,10.90
2022-12-27T00:04:48.828Z,10.88
2022-12-27T00:06:50.499Z,10.85
2022-12-27T00:08:52.714Z,10.81
2022-12-27T00:10:54.278Z,10.77
2022-12-27T00:12:56.508Z,10.74
2022-12-27T00:14:57.945Z,10.69
2022-12-27T00:16:59.493Z,10.68
2022-12-27T00:19:01.994Z,10.66
2022-12-27T00:21:04.548Z,10.61
2022-12-27T00:23:06.741Z,10.58
2022-12-27T00:25:09.143Z,10.56
2022-12-27T00:27:10.838Z,10.51
2022-12-27T00:29:12.480Z,10.47
2022-12-27T00:31:15.016Z,10.45
2022-12-27T00:33:16.582Z,10.40
2022-12-27T00:35:18.205Z,10.36
2022-12-27T00:37:19.682Z,10.32
2022-12-27T00:39:21.279Z,10.28
2022-12-27T00:41:23.009Z,10.24
2022-12-27T00:43:24.649Z,10.22
2022-12-27T00:45:26.150Z,10.17
2022-12-27T00:47:27.663Z,10.13
2022-12-27T00:49:29.242Z,10.09
2022-12-27T00:51:30.815Z,10.05
2022-12-27T00:53:33.724Z,10.01
2022-12-27T00:55:35.750Z,9.97
2022-12-27T00:57:37.308Z,9.93
2022-12-27T00:59:38.761Z,9.88
2022-12-27T01:01:40.954Z,9.86
2022-12-27T01:03:43.490Z,9.84
2022-12-27T01:05:45.055Z,9.79
2022-12-27T01:07:46.588Z,9.76
2022-12-27T01:09:48.151Z,9.73
2022-12-27T01:11:49.735Z,9.70
2022-12-27T01:13:51.351Z,9.64
2022-12-27T01:15:52.901Z,9.62
2022-12-27T01:17:54.437Z,9.59
2022-12-27T01:19:56.166Z,9.55
2022-12-27T01:21:57.816Z,9.52
2022-12-27T01:23:59.345Z,9.50
2022-12-27T01:26:06.514Z,9.46
2022-12-27T01:28:09.146Z,9.42
2022-12-27T01:30:11.261Z,9.41
2022-12-27T01:32:12.867Z,9.38
2022-12-27T01:34:14.409Z,9.34
2022-12-27T01:36:21.907Z,9.30
2022-12-27T01:38:23.353Z,9.27
2022-12-27T01:40:25.375Z,9.22
2022-12-27T01:42:46.218Z,9.21
2022-12-27T01:44:56.397Z,9.16
2022-12-27T01:46:58.119Z,9.13
2022-12-27T01:48:59.661Z,9.10
2022-12-27T01:51:05.042Z,9.06
2022-12-27T01:53:24.771Z,8.99
2022-12-27T01:55:48.622Z,8.96
2022-12-27T01:57:53.480Z,8.93
2022-12-27T01:59:55.869Z,8.89
2022-12-27T02:01:58.315Z,8.87
2022-12-27T02:04:05.169Z,8.84
2022-12-27T02:06:09.691Z,8.81
2022-12-27T02:08:27.068Z,8.75
2022-12-27T02:10:29.427Z,8.73
2022-12-27T02:12:31.649Z,8.73
2022-12-27T02:14:45.228Z,8.69
2022-12-27T02:16:47.362Z,8.66
2022-12-27T02:18:49.245Z,8.62
2022-12-27T02:21:15.919Z,8.58
2022-12-27T02:24:04.332Z,8.52
2022-12-27T02:26:33.845Z,8.46
2022-12-27T02:29:06.253Z,8.40
2022-12-27T02:31:19.518Z,8.36
2022-12-27T02:33:27.513Z,8.31
2022-12-27T02:35:35.990Z,8.27
2022-12-27T02:37:44.482Z,8.24
2022-12-27T02:39:48.926Z,8.19
2022-12-27T02:42:10.775Z,8.16
2022-12-27T02:44:36.984Z,8.11
2022-12-27T02:46:57.266Z,8.06
2022-12-27T02:49:17.684Z,8.01
2022-12-27T02:52:05.293Z,7.97
2022-12-27T02:54:37.570Z,7.92
2022-12-27T02:57:07.604Z,7.88
2022-12-27T02:59:59.944Z,7.83
2022-12-27T03:02:33.619Z,7.80
2022-12-27T03:05:02.715Z,7.77
2022-12-27T03:07:37.114Z,7.70
2022-12-27T03:10:07.722Z,7.66
2022-12-27T03:12:56.156Z,7.60
2022-12-27T03:15:21.358Z,7.56
2022-12-27T03:17:34.145Z,7.53
2022-12-27T03:20:04.177Z,7.50
2022-12-27T03:22:27.536Z,7.47
2022-12-27T03:24:54.145Z,7.42
2022-12-27T03:26:58.451Z,7.37
2022-12-27T03:29:21.444Z,7.35
2022-12-27T03:31:46.223Z,7.32
2022-12-27T03:33:50.180Z,7.26
2022-12-27T03:36:23.803Z,7.23
2022-12-27T03:38:25.882Z,7.19
2022-12-27T03:41:09.623Z,7.13
2022-12-27T03:43:15.416Z,7.10
2022-12-27T03:45:20.809Z,7.06
2022-12-27T03:47:47.375Z,7.03
2022-12-27T03:50:02.943Z,7.00
2022-12-27T03:52:08.287Z,6.98
2022-12-27T03:54:18.827Z,6.95
2022-12-27T03:56:20.832Z,6.93
2022-12-27T03:58:22.446Z,6.94
2022-12-27T04:00:23.995Z,6.92
2022-12-27T04:02:25.740Z,6.88
2022-12-27T04:04:27.343Z,6.87
2022-12-27T04:06:28.907Z,6.83
2022-12-27T04:08:49.199Z,6.79
2022-12-27T04:11:09.114Z,6.76
2022-12-27T04:13:29.111Z,6.74
2022-12-27T04:15:49.939Z,6.72
2022-12-27T04:18:10.202Z,6.71
2022-12-27T04:20:30.594Z,6.70
2022-12-27T04:22:50.865Z,6.69
2022-12-27T04:25:10.618Z,6.63
2022-12-27T04:27:30.592Z,6.59
2022-12-27T04:29:50.343Z,6.58
2022-12-27T04:32:10.254Z,6.57
2022-12-27T04:34:30.264Z,6.54
2022-12-27T04:36:31.755Z,6.54
2022-12-27T04:38:33.395Z,6.50
2022-12-27T04:40:53.933Z,6.50
2022-12-27T04:43:14.343Z,6.44
2022-12-27T04:45:34.610Z,6.42
2022-12-27T04:47:55.134Z,6.38
2022-12-27T04:50:15.348Z,6.37
2022-12-27T04:52:37.679Z,6.33
2022-12-27T04:54:57.614Z,6.32
2022-12-27T04:56:59.090Z,6.31
2022-12-27T04:59:19.437Z,6.29
2022-12-27T05:01:39.960Z,6.28
2022-12-27T05:03:43.662Z,6.26
2022-12-27T05:05:46.735Z,6.25
2022-12-27T05:08:07.326Z,6.24
2022-12-27T05:10:28.067Z,6.23
2022-12-27T05:12:48.699Z,6.21
2022-12-27T05:14:50.264Z,6.20
2022-12-27T05:16:51.727Z,6.19
2022-12-27T05:18:53.714Z,6.17
2022-12-27T05:20:55.329Z,6.17
2022-12-27T05:23:15.720Z,6.18
2022-12-27T05:25:35.270Z,6.16
2022-12-27T05:27:36.784Z,6.14
2022-12-27T05:29:38.298Z,6.14
2022-12-27T05:31:40.122Z,6.13
2022-12-27T05:33:41.748Z,6.13
2022-12-27T05:35:43.969Z,6.12
2022-12-27T05:37:50.073Z,6.13
2022-12-27T05:39:54.711Z,6.11
2022-12-27T05:41:56.274Z,6.08
2022-12-27T05:44:02.126Z,6.10
2022-12-27T05:46:17.360Z,6.08
2022-12-27T05:48:19.130Z,6.08
2022-12-27T05:50:21.152Z,6.08
2022-12-27T05:52:25.378Z,6.07
2022-12-27T05:54:26.955Z,6.06
2022-12-27T05:56:29.266Z,6.08
2022-12-27T05:58:31.618Z,6.13
2022-12-27T06:00:33.149Z,6.14
2022-12-27T06:02:34.765Z,6.16
2022-12-27T06:04:36.390Z,6.17
2022-12-27T06:06:37.963Z,6.19
2022-12-27T06:08:40.254Z,6.20
2022-12-27T06:10:41.828Z,6.20
2022-12-27T06:12:43.247Z,6.21
2022-12-27T06:14:44.801Z,6.19
2022-12-27T06:16:49.603Z,6.16
2022-12-27T06:18:51.293Z,6.13
2022-12-27T06:20:52.827Z,6.07
2022-12-27T06:22:54.240Z,6.03
2022-12-27T06:24:55.787Z,6.01
2022-12-27T06:26:57.285Z,6.01
2022-12-27T06:28:58.937Z,6.01
2022-12-27T06:31:01.674Z,6.02
2022-12-27T06:33:03.203Z,6.00
2022-12-27T06:35:05.201Z,6.00
2022-12-27T06:37:06.700Z,5.97
2022-12-27T06:39:08.295Z,5.96
2022-12-27T06:41:13.374Z,5.96
2022-12-27T06:43:14.899Z,5.94
2022-12-27T06:45:16.508Z,5.94
2022-12-27T06:47:18.089Z,5.94
2022-12-27T06:49:19.796Z,5.91
2022-12-27T06:51:22.023Z,5.87
2022-12-27T06:53:23.863Z,5.86
2022-12-27T06:55:25.588Z,5.86
2022-12-27T06:57:27.211Z,5.82
2022-12-27T06:59:29.120Z,5.85
2022-12-27T07:01:30.986Z,5.84
2022-12-27T07:03:32.541Z,5.89
2022-12-27T07:05:38.325Z,5.90
2022-12-27T07:07:40.087Z,5.94
2022-12-27T07:09:41.834Z,5.95
2022-12-27T07:11:43.343Z,5.96
2022-12-27T07:13:48.358Z,5.97
2022-12-27T07:15:49.927Z,5.99
2022-12-27T07:17:51.512Z,5.99
2022-12-27T07:19:53.358Z,6.03
2022-12-27T07:21:55.195Z,6.06
2022-12-27T07:23:57.366Z,6.07
2022-12-27T07:26:10.926Z,6.09
2022-12-27T07:28:12.483Z,6.12
2022-12-27T07:30:14.095Z,6.14
2022-12-27T07:32:15.663Z,6.17
2022-12-27T07:34:17.192Z,6.19
2022-12-27T07:36:21.667Z,6.22
2022-12-27T07:38:23.138Z,6.23
2022-12-27T07:40:25.217Z,6.25
2022-12-27T07:42:28.707Z,6.30
2022-12-27T07:44:30.166Z,6.33
2022-12-27T07:46:32.945Z,6.37
2022-12-27T07:48:35.612Z,6.40
2022-12-27T07:50:37.378Z,6.43
2022-12-27T07:52:38.916Z,6.47
2022-12-27T07:54:41.415Z,6.48
2022-12-27T07:56:43.041Z,6.53
2022-12-27T07:58:46.980Z,6.54
2022-12-27T08:00:50.733Z,6.57
2022-12-27T08:02:52.330Z,6.60
2022-12-27T08:04:54.052Z,6.63
2022-12-27T08:07:17.102Z,6.66
2022-12-27T08:09:36.902Z,6.69
2022-12-27T08:11:39.625Z,6.71
2022-12-27T08:13:41.140Z,6.74
2022-12-27T08:15:43.609Z,6.77
2022-12-27T08:17:45.222Z,6.80
2022-12-27T08:19:47.398Z,6.83
2022-12-27T08:21:48.951Z,6.85
2022-12-27T08:23:52.346Z,6.87
2022-12-27T08:25:55.107Z,6.89
2022-12-27T08:28:07.759Z,6.91
2022-12-27T08:30:09.923Z,6.95
2022-12-27T08:32:11.656Z,6.99
2022-12-27T08:34:13.368Z,7.02
2022-12-27T08:36:52.954Z,7.07
2022-12-27T08:38:36.544Z,7.06
2022-12-27T08:40:43.422Z,7.09
2022-12-27T08:42:45.023Z,7.13
2022-12-27T08:44:46.588Z,7.17
2022-12-27T08:46:48.089Z,7.18
2022-12-27T08:48:50.761Z,7.20
2022-12-27T08:50:52.402Z,7.21
2022-12-27T08:52:58.029Z,7.25
2022-12-27T08:54:59.516Z,7.28
2022-12-27T08:57:01.025Z,7.32
2022-12-27T08:59:02.488Z,7.37
2022-12-27T09:01:11.134Z,7.38
2022-12-27T09:03:12.807Z,7.43
2022-12-27T09:05:14.504Z,7.48
2022-12-27T09:07:16.096Z,7.51
2022-12-27T09:09:17.835Z,7.55
2022-12-27T09:11:22.753Z,7.60
2022-12-27T09:13:24.278Z,7.65
2022-12-27T09:15:25.911Z,7.69
2022-12-27T09:17:49.911Z,7.74
2022-12-27T09:19:51.476Z,7.79
2022-12-27T09:21:52.990Z,7.85
2022-12-27T09:23:54.823Z,7.91
2022-12-27T09:25:58.890Z,7.96
2022-12-27T09:28:00.448Z,8.00
2022-12-27T09:30:03.543Z,8.04
2022-12-27T09:32:05.418Z,8.10
2022-12-27T09:34:06.959Z,8.14
2022-12-27T09:36:26.396Z,8.18
2022-12-27T09:38:27.954Z,8.22
2022-12-27T09:40:29.511Z,8.24
2022-12-27T09:42:56.208Z,8.26
2022-12-27T09:45:15.553Z,8.31
2022-12-27T09:47:33.041Z,8.35
2022-12-27T09:49:41.441Z,8.42
2022-12-27T09:52:14.719Z,8.48
2022-12-27T09:54:25.449Z,8.54
2022-12-27T09:56:47.408Z,8.59
2022-12-27T09:58:55.326Z,8.67
2022-12-27T10:00:56.971Z,8.74
2022-12-27T10:02:59.406Z,8.76
2022-12-27T10:05:20.740Z,8.82
2022-12-27T10:07:50.381Z,8.85
2022-12-27T10:09:51.845Z,8.89
2022-12-27T10:12:05.896Z,8.89
2022-12-27T10:14:33.785Z,8.94
2022-12-27T10:17:15.769Z,8.98
2022-12-27T10:19:26.162Z,9.01
2022-12-27T10:21:34.378Z,9.06
2022-12-27T10:23:38.669Z,9.07
2022-12-27T10:25:41.307Z,9.09
2022-12-27T10:27:43.386Z,9.12
2022-12-27T10:29:45.355Z,9.15
2022-12-27T10:31:46.906Z,9.18
2022-12-27T10:33:50.508Z,9.21
2022-12-27T10:35:52.237Z,9.22
2022-12-27T10:37:54.059Z,9.23
2022-12-27T10:40:08.603Z,9.25
2022-12-27T10:42:38.428Z,9.29
2022-12-27T10:44:40.126Z,9.31
2022-12-27T10:46:44.589Z,9.33
2022-12-27T10:51:23.384Z,9.38
2022-12-27T10:53:36.509Z,9.39
2022-12-27T10:55:39.165Z,9.43
2022-12-27T10:57:40.638Z,9.45
2022-12-27T10:59:42.103Z,9.48
2022-12-27T11:02:05.023Z,9.48
2022-12-27T11:04:15.971Z,9.48
2022-12-27T11:06:24.727Z,9.51
2022-12-27T11:08:26.425Z,9.53
2022-12-27T11:10:33.251Z,9.57
2022-12-27T11:12:36.215Z,9.61
2022-12-27T11:14:37.761Z,9.63
2022-12-27T11:16:40.996Z,9.63
2022-12-27T11:18:52.722Z,9.64
2022-12-27T11:20:57.171Z,9.66
2022-12-27T11:23:11.451Z,9.67
2022-12-27T11:25:15.327Z,9.67
2022-12-27T11:27:24.439Z,9.68
2022-12-27T11:29:28.218Z,9.68
2022-12-27T11:31:36.533Z,9.66
2022-12-27T11:33:47.321Z,9.70
2022-12-27T11:35:52.354Z,9.71
2022-12-27T11:37:53.968Z,9.74
2022-12-27T11:40:20.416Z,9.77
2022-12-27T11:42:38.683Z,9.78
2022-12-27T11:44:49.908Z,9.81
2022-12-27T11:47:31.514Z,9.82
2022-12-27T11:49:40.230Z,9.85
2022-12-27T11:52:06.585Z,9.87
2022-12-27T11:54:40.309Z,9.91
2022-12-27T11:57:23.286Z,9.93
2022-12-27T11:59:41.077Z,10.00
2022-12-27T12:02:13.560Z,10.04
2022-12-27T12:04:24.538Z,10.10
2022-12-27T12:06:48.299Z,10.11
2022-12-27T12:09:23.279Z,10.16
2022-12-27T12:11:57.165Z,10.23
2022-12-27T12:14:33.636Z,10.28
2022-12-27T12:17:09.279Z,10.32
2022-12-27T12:19:30.695Z,10.39
2022-12-27T12:22:24.457Z,10.44
2022-12-27T12:24:37.304Z,10.49
2022-12-27T12:27:02.125Z,10.54
2022-12-27T12:29:28.636Z,10.60
2022-12-27T12:32:10.594Z,10.65
2022-12-27T12:34:36.133Z,10.71
2022-12-27T12:37:05.739Z,10.77
2022-12-27T12:39:32.924Z,10.82
2022-12-27T12:41:51.918Z,10.85
2022-12-27T12:44:28.347Z,10.90
2022-12-27T12:46:54.817Z,10.93
2022-12-27T12:49:17.890Z,10.96
2022-12-27T12:51:35.419Z,11.02
2022-12-27T12:53:36.830Z,11.07
2022-12-27T12:55:51.522Z,11.11
2022-12-27T12:58:23.886Z,11.14
2022-12-27T13:00:42.598Z,11.19
2022-12-27T13:03:16.366Z,11.24
2022-12-27T13:05:38.401Z,11.26
2022-12-27T13:08:04.699Z,11.31
2022-12-27T13:10:37.091Z,11.32
2022-12-27T13:12:53.063Z,11.37
2022-12-27T13:15:13.329Z,11.38
2022-12-27T13:17:24.295Z,11.42
2022-12-27T13:19:50.068Z,11.43
2022-12-27T13:22:34.238Z,11.45
2022-12-27T13:24:59.581Z,11.48
2022-12-27T13:27:15.573Z,11.49
2022-12-27T13:29:38.747Z,11.53
2022-12-27T13:32:02.104Z,11.54
2022-12-27T13:34:20.024Z,11.58
2022-12-27T13:36:33.577Z,11.60
2022-12-27T13:38:50.646Z,11.64
2022-12-27T13:41:10.658Z,11.66
2022-12-27T13:43:51.030Z,11.67
2022-12-27T13:46:12.619Z,11.68
2022-12-27T13:49:06.751Z,11.66
2022-12-27T13:51:11.111Z,11.67
2022-12-27T13:53:29.842Z,11.68
2022-12-27T13:55:52.130Z,11.69
2022-12-27T13:58:13.788Z,11.65
2022-12-27T14:00:22.943Z,11.63
2022-12-27T14:03:01.820Z,11.61
2022-12-27T14:05:15.120Z,11.61
2022-12-27T14:07:53.836Z,11.57
2022-12-27T14:10:18.540Z,11.56
2022-12-27T14:12:59.556Z,11.53
2022-12-27T14:15:06.651Z,11.52
2022-12-27T14:17:30.873Z,11.52
2022-12-27T14:19:57.429Z,11.51
2022-12-27T14:22:16.473Z,11.49
2022-12-27T14:24:43.389Z,11.47
2022-12-27T14:27:30.842Z,11.47
2022-12-27T14:29:59.621Z,11.46
2022-12-27T14:32:13.013Z,11.45
2022-12-27T14:34:59.889Z,11.43
2022-12-27T14:37:19.618Z,11.40
2022-12-27T14:39:42.573Z,11.39
2022-12-27T14:42:08.825Z,11.36
2022-12-27T14:44:37.964Z,11.30
2022-12-27T14:47:08.352Z,11.30
2022-12-27T14:49:26.301Z,11.28
2022-12-27T14:52:12.136Z,11.25
2022-12-27T14:54:53.854Z,11.23
2022-12-27T14:57:15.282Z,11.20
2022-12-27T14:59:35.440Z,11.18
2022-12-27T15:01:58.154Z,11.16
2022-12-27T15:04:27.382Z,11.13
2022-12-27T15:06:53.715Z,11.10
2022-12-27T15:09:19.896Z,11.10
2022-12-27T15:11:51.683Z,11.04
2022-12-27T15:14:07.066Z,11.03
2022-12-27T15:16:40.913Z,10.98
2022-12-27T15:18:49.255Z,10.94
2022-12-27T15:21:19.695Z,10.91
2022-12-27T15:23:35.057Z,10.84
2022-12-27T15:25:45.903Z,10.81
2022-12-27T15:28:00.605Z,10.78
2022-12-27T15:30:38.765Z,10.76
2022-12-27T15:32:58.269Z,10.72
2022-12-27T15:35:23.322Z,10.71
2022-12-27T15:37:52.733Z,10.67
2022-12-27T15:39:54.404Z,10.66
2022-12-27T15:42:04.787Z,10.60
2022-12-27T15:44:14.377Z,10.57
2022-12-27T15:46:39.620Z,10.52
2022-12-27T15:49:05.965Z,10.48
2022-12-27T15:51:29.031Z,10.43
2022-12-27T15:54:08.239Z,10.43
2022-12-27T15:56:26.204Z,10.39
2022-12-27T15:58:27.973Z,10.39
2022-12-27T16:00:34.245Z,10.34
2022-12-27T16:02:48.012Z,10.32
2022-12-27T16:05:14.441Z,10.33
2022-12-27T16:07:39.789Z,10.26
2022-12-27T16:09:41.385Z,10.23
2022-12-27T16:12:00.500Z,10.20
2022-12-27T16:14:24.345Z,10.14
2022-12-27T16:16:26.007Z,10.13
2022-12-27T16:18:46.281Z,10.10
2022-12-27T16:20:56.819Z,10.07
2022-12-27T16:23:02.167Z,10.03
2022-12-27T16:25:28.618Z,9.98
2022-12-27T16:27:35.107Z,9.97
2022-12-27T16:29:43.739Z,9.95
2022-12-27T16:31:49.494Z,9.91
2022-12-27T16:33:58.989Z,9.86
2022-12-27T16:36:13.527Z,9.84
2022-12-27T16:38:22.421Z,9.80
2022-12-27T16:40:38.088Z,9.75
2022-12-27T16:42:48.835Z,9.73
2022-12-27T16:45:02.983Z,9.71
2022-12-27T16:47:26.075Z,9.65
2022-12-27T16:49:39.335Z,9.63
2022-12-27T16:52:25.313Z,9.56
2022-12-27T16:54:44.988Z,9.50
2022-12-27T16:56:48.319Z,9.50
2022-12-27T16:58:50.237Z,9.44
2022-12-27T17:00:59.713Z,9.43
2022-12-27T17:03:21.477Z,9.37
2022-12-27T17:05:35.454Z,9.36
2022-12-27T17:07:57.308Z,9.30
2022-12-27T17:10:27.658Z,9.25
2022-12-27T17:12:29.277Z,9.22
2022-12-27T17:14:37.049Z,9.19
2022-12-27T17:16:55.303Z,9.14
2022-12-27T17:19:04.079Z,9.11
2022-12-27T17:21:23.314Z,9.07
2022-12-27T17:23:28.465Z,9.10
2022-12-27T17:25:41.723Z,9.07
2022-12-27T17:28:10.443Z,9.04
2022-12-27T17:30:20.625Z,9.02
2022-12-27T17:32:55.882Z,9.00
2022-12-27T17:35:14.331Z,8.98
2022-12-27T17:37:28.135Z,8.99
2022-12-27T17:40:02.123Z,8.94
2022-12-27T17:42:38.076Z,8.95
2022-12-27T17:45:31.402Z,8.92
2022-12-27T17:48:00.836Z,8.87
2022-12-27T17:50:06.176Z,8.86
2022-12-27T17:52:34.510Z,8.79
2022-12-27T17:54:57.719Z,8.79
2022-12-27T17:57:19.439Z,8.79
2022-12-27T17:59:25.789Z,8.76
2022-12-27T18:01:29.886Z,8.73
2022-12-27T18:03:39.476Z,8.73
2022-12-27T18:05:43.720Z,8.71
2022-12-27T18:07:45.449Z,8.69
2022-12-27T18:09:49.697Z,8.67
2022-12-27T18:11:51.352Z,8.65
2022-12-27T18:13:56.612Z,8.66
2022-12-27T18:15:58.669Z,8.66
2022-12-27T18:18:07.035Z,8.61
2022-12-27T18:20:26.639Z,8.57
2022-12-27T18:22:28.505Z,8.55
2022-12-27T18:24:32.718Z,8.52
2022-12-27T18:26:40.875Z,8.51
2022-12-27T18:28:43.455Z,8.49
2022-12-27T18:30:55.564Z,8.46
2022-12-27T18:32:57.921Z,8.45
2022-12-27T18:35:02.838Z,8.41
2022-12-27T18:37:11.261Z,8.37
2022-12-27T18:39:29.667Z,8.35
2022-12-27T18:41:40.494Z,8.30
2022-12-27T18:43:44.875Z,8.27
2022-12-27T18:45:46.543Z,8.23
2022-12-27T18:47:50.965Z,8.23
2022-12-27T18:50:03.856Z,8.19
2022-12-27T18:52:14.275Z,8.18
2022-12-27T18:54:28.003Z,8.13
2022-12-27T18:56:34.912Z,8.09
2022-12-27T18:58:36.474Z,8.04
2022-12-27T19:00:49.693Z,7.99
2022-12-27T19:02:53.150Z,7.98
2022-12-27T19:05:24.091Z,7.92
2022-12-27T19:07:25.904Z,7.90
2022-12-27T19:09:35.174Z,7.85
2022-12-27T19:11:38.253Z,7.84
2022-12-27T19:13:49.024Z,7.82
2022-12-27T19:15:51.801Z,7.80
2022-12-27T19:17:58.167Z,7.76
2022-12-27T19:20:06.622Z,7.75
2022-12-27T19:22:46.625Z,7.71
2022-12-27T19:24:48.172Z,7.69
2022-12-27T19:26:51.305Z,7.69
2022-12-27T19:29:08.965Z,7.69
2022-12-27T19:31:21.930Z,7.68
2022-12-27T19:33:29.965Z,7.64
2022-12-27T19:35:31.634Z,7.63
2022-12-27T19:37:33.612Z,7.60
2022-12-27T19:39:37.872Z,7.57
2022-12-27T19:45:05.554Z,7.46
2022-12-27T19:47:12.327Z,7.41
2022-12-27T19:51:37.284Z,7.34
2022-12-27T19:53:45.288Z,7.33
2022-12-27T19:55:48.379Z,7.27
2022-12-27T19:57:49.969Z,7.23
2022-12-27T19:59:51.441Z,7.19
2022-12-27T20:01:53.590Z,7.17
2022-12-27T20:03:55.419Z,7.15
2022-12-27T20:06:11.747Z,7.20
2022-12-27T20:08:37.924Z,7.24
2022-12-27T20:10:39.540Z,7.25
2022-12-27T20:13:28.102Z,7.24
2022-12-27T20:15:31.188Z,7.22
2022-12-27T20:17:32.817Z,7.21
2022-12-27T20:19:34.697Z,7.16
2022-12-27T20:21:36.293Z,7.16
2022-12-27T20:23:38.036Z,7.13
2022-12-27T20:25:43.120Z,7.10
2022-12-27T20:27:44.843Z,7.07
2022-12-27T20:29:46.487Z,7.04
2022-12-27T20:31:50.104Z,7.03
2022-12-27T20:33:55.716Z,7.04
2022-12-27T20:36:23.625Z,7.02
2022-12-27T20:38:26.142Z,7.01
2022-12-27T20:40:28.022Z,6.96
2022-12-27T20:42:29.687Z,6.95
2022-12-27T20:44:31.343Z,6.91
2022-12-27T20:46:32.836Z,6.89
2022-12-27T20:48:38.070Z,6.89
2022-12-27T20:50:40.832Z,6.85
2022-12-27T20:52:42.303Z,6.81
2022-12-27T20:54:43.894Z,6.80
2022-12-27T20:56:45.503Z,6.75
2022-12-27T20:58:47.175Z,6.72
2022-12-27T21:00:48.680Z,6.71
2022-12-27T21:02:50.391Z,6.68
2022-12-27T21:04:51.866Z,6.66
2022-12-27T21:06:53.468Z,6.62
2022-12-27T21:08:57.770Z,6.59
2022-12-27T21:11:06.175Z,6.55
2022-12-27T21:13:07.822Z,6.51
2022-12-27T21:15:10.691Z,6.48
2022-12-27T21:17:12.516Z,6.44
2022-12-27T21:19:14.168Z,6.38
2022-12-27T21:21:19.815Z,6.37
2022-12-27T21:23:21.499Z,6.33
2022-12-27T21:25:23.041Z,6.33
2022-12-27T21:27:24.621Z,6.28
2022-12-27T21:29:26.152Z,6.30
2022-12-27T21:31:28.685Z,6.29
2022-12-27T21:33:30.813Z,6.26
2022-12-27T21:35:32.318Z,6.26
2022-12-27T21:37:33.786Z,6.25
2022-12-27T21:39:35.560Z,6.23
2022-12-27T21:41:39.365Z,6.20
2022-12-27T21:43:41.476Z,6.19
2022-12-27T21:45:42.929Z,6.15
2022-12-27T21:47:44.338Z,6.14
2022-12-27T21:49:45.908Z,6.09
2022-12-27T21:51:47.553Z,6.09
2022-12-27T21:53:49.210Z,6.07
2022-12-27T21:55:58.340Z,6.05
2022-12-27T21:57:59.708Z,6.06
2022-12-27T22:00:01.294Z,6.00
2022-12-27T22:02:02.870Z,5.99
2022-12-27T22:04:04.747Z,5.94
2022-12-27T22:06:16.947Z,5.90
2022-12-27T22:08:18.589Z,5.86
2022-12-27T22:10:20.229Z,5.84
2022-12-27T22:12:21.776Z,5.81
2022-12-27T22:14:25.776Z,5.80
2022-12-27T22:16:31.606Z,5.81
2022-12-27T22:18:34.982Z,5.77
2022-12-27T22:20:37.789Z,5.75
2022-12-27T22:22:42.137Z,5.71
2022-12-27T22:24:43.699Z,5.71
2022-12-27T22:26:45.333Z,5.70
2022-12-27T22:28:47.082Z,5.66
2022-12-27T22:30:51.811Z,5.64
2022-12-27T22:32:54.199Z,5.62
2022-12-27T22:34:55.995Z,5.62
2022-12-27T22:36:57.444Z,5.61
2022-12-27T22:38:59.673Z,5.60
2022-12-27T22:41:16.468Z,5.57
2022-12-27T22:43:17.952Z,5.55
2022-12-27T22:45:19.561Z,5.52
2022-12-27T22:47:28.689Z,5.54
2022-12-27T22:49:30.388Z,5.51
2022-12-27T22:51:34.503Z,5.49
2022-12-27T22:53:36.275Z,5.45
2022-12-27T22:55:41.146Z,5.44
2022-12-27T22:57:42.742Z,5.44
2022-12-27T22:59:44.349Z,5.41
2022-12-27T23:01:46.212Z,5.40
2022-12-27T23:03:48.217Z,5.40
2022-12-27T23:06:00.182Z,5.34
2022-12-27T23:08:06.126Z,5.34
2022-12-27T23:10:09.585Z,5.34
2022-12-27T23:12:11.924Z,5.36
2022-12-27T23:14:15.978Z,5.32
2022-12-27T23:16:17.597Z,5.30
2022-12-27T23:18:19.201Z,5.32
2022-12-27T23:20:20.750Z,5.33
2022-12-27T23:22:22.318Z,5.35
2022-12-27T23:24:23.855Z,5.37
2022-12-27T23:26:25.985Z,5.39
2022-12-27T23:28:27.704Z,5.38
2022-12-27T23:30:29.330Z,5.39
2022-12-27T23:32:30.859Z,5.41
2022-12-27T23:34:32.385Z,5.39
2022-12-27T23:36:34.315Z,5.40
2022-12-27T23:38:35.886Z,5.40
2022-12-27T23:40:37.437Z,5.42
2022-12-27T23:42:39.037Z,5.44
2022-12-27T23:44:40.661Z,5.44
2022-12-27T23:46:42.434Z,5.45
2022-12-27T23:48:49.608Z,5.46
2022-12-27T23:50:51.312Z,5.43
2022-12-27T23:52:52.940Z,5.44
2022-12-27T23:54:54.419Z,5.44
2022-12-27T23:56:56.151Z,5.45
2022-12-27T23:58:59.687Z,5.44
